Time;durP1;ratioP1;P1;durP2;ratioP2;P2;SDS_P1;SDS_P2;PMS_P1;PMS_P2;Temp;Humidity;BMP_temperature;BMP_pressure;BME280_temperature;BME280_humidity;BME280_pressure;Samples;Min_cycle;Max_cycle;Signal;HPM_P1;HPM_P2
2021/08/01 00:01:37;;;;;;;11.75;9.73;;;;;;;17.54;74.38;99634.16;5035999;28;20053;-65
2021/08/01 00:04:06;;;;;;;10.93;9.77;;;;;;;17.55;74.40;99633.75;5035820;28;20053;-65
2021/08/01 00:06:33;;;;;;;11.57;10.43;;;;;;;17.51;74.57;99643.34;5035545;28;20053;-65
2021/08/01 00:09:00;;;;;;;11.95;10.75;;;;;;;17.51;74.35;99637.72;5035673;28;20480;-65
2021/08/01 00:11:27;;;;;;;12.73;10.85;;;;;;;17.45;74.53;99634.44;5035999;28;20060;-65
2021/08/01 00:13:55;;;;;;;15.18;12.00;;;;;;;17.38;74.90;99637.94;5035352;28;20053;-65
2021/08/01 00:16:24;;;;;;;12.77;11.13;;;;;;;17.43;74.60;99636.81;5035842;28;20053;-65
2021/08/01 00:18:52;;;;;;;12.35;11.05;;;;;;;17.37;74.60;99633.53;5035473;28;20080;-65
2021/08/01 00:21:20;;;;;;;13.32;11.38;;;;;;;17.33;74.81;99629.84;5035451;28;20065;-65
2021/08/01 00:23:48;;;;;;;16.97;13.77;;;;;;;17.33;75.35;99631.84;5035411;28;20046;-65
2021/08/01 00:26:15;;;;;;;17.50;13.82;;;;;;;17.31;75.73;99629.41;5035655;28;20069;-65
2021/08/01 00:28:42;;;;;;;16.20;14.15;;;;;;;17.32;75.66;99641.47;5035165;28;20053;-65
2021/08/01 00:31:10;;;;;;;18.08;14.07;;;;;;;17.33;75.73;99634.69;5035502;28;20057;-65
2021/08/01 00:33:37;;;;;;;18.50;14.27;;;;;;;17.31;76.17;99640.69;5035411;28;20080;-65
2021/08/01 00:36:04;;;;;;;17.80;14.18;;;;;;;17.26;75.65;99626.94;5035171;28;20062;-65
2021/08/01 00:38:33;;;;;;;14.38;12.80;;;;;;;17.24;75.66;99626.50;5035524;28;20053;-65
2021/08/01 00:41:01;;;;;;;14.80;12.73;;;;;;;17.25;75.18;99616.88;5035137;28;20054;-65
2021/08/01 00:43:29;;;;;;;13.48;11.77;;;;;;;17.23;74.81;99616.44;5035013;28;20049;-65
2021/08/01 00:45:56;;;;;;;14.15;12.63;;;;;;;17.16;74.86;99621.97;5033950;28;20056;-65
2021/08/01 00:48:26;;;;;;;15.27;13.10;;;;;;;17.12;74.69;99612.66;5034817;28;20061;-65
2021/08/01 00:50:54;;;;;;;16.55;13.55;;;;;;;17.07;74.73;99610.97;5034700;28;20509;-65
2021/08/01 00:53:21;;;;;;;17.23;13.50;;;;;;;16.99;74.92;99612.09;5034700;28;20049;-65
2021/08/01 00:55:50;;;;;;;14.73;13.13;;;;;;;16.95;75.07;99602.78;5034804;28;20467;-65
2021/08/01 00:58:18;;;;;;;15.20;13.45;;;;;;;16.91;75.14;99599.91;5034877;28;20053;-65
2021/08/01 01:01:07;;;;;;;14.63;12.60;;;;;;;16.88;75.27;99600.63;5034698;28;20053;-65
2021/08/01 01:03:44;;;;;;;15.32;13.65;;;;;;;16.87;75.21;99595.41;5034103;28;20053;-65
2021/08/01 01:06:19;;;;;;;17.10;13.48;;;;;;;16.71;76.20;99603.97;5034627;28;20050;-65
2021/08/01 01:08:51;;;;;;;14.27;12.77;;;;;;;16.82;75.75;99610.63;5034216;28;20057;-65
2021/08/01 01:11:23;;;;;;;15.95;13.00;;;;;;;16.79;76.04;99614.94;5034453;28;20053;-65
2021/08/01 01:13:55;;;;;;;17.42;13.98;;;;;;;16.77;76.19;99602.47;5034146;28;20054;-65
2021/08/01 01:16:28;;;;;;;14.70;13.10;;;;;;;16.79;75.94;99600.06;5034623;28;20057;-65
2021/08/01 01:18:59;;;;;;;14.35;12.80;;;;;;;16.83;75.86;99604.59;5034057;28;20049;-65
2021/08/01 01:21:40;;;;;;;15.07;11.85;;;;;;;16.90;75.59;99601.06;5034516;28;20057;-64
2021/08/01 01:24:13;;;;;;;14.90;12.48;;;;;;;16.90;75.75;99594.63;5033778;28;20056;-65
2021/08/01 01:26:55;;;;;;;12.25;11.05;;;;;;;16.91;75.04;99597.09;5034619;28;20479;-65
2021/08/01 01:29:28;;;;;;;12.43;11.07;;;;;;;16.85;75.52;99598.59;5034081;28;20083;-65
2021/08/01 01:32:04;;;;;;;14.70;12.95;;;;;;;16.88;75.75;99597.81;5034292;28;20049;-64
2021/08/01 01:34:42;;;;;;;14.63;11.68;;;;;;;16.91;75.49;99591.47;5034462;28;20045;-65
2021/08/01 01:37:14;;;;;;;12.55;11.05;;;;;;;16.90;75.49;99597.47;5034411;28;20056;-65
2021/08/01 01:39:42;;;;;;;12.95;11.45;;;;;;;16.93;75.49;99597.53;5033989;28;20057;-65
2021/08/01 01:42:14;;;;;;;13.37;10.97;;;;;;;16.91;75.62;99597.09;5034194;28;20066;-65
2021/08/01 01:44:45;;;;;;;17.60;12.10;;;;;;;16.94;75.49;99601.94;5034028;28;20484;-65
2021/08/01 01:47:13;;;;;;;15.57;12.27;;;;;;;16.93;75.64;99605.16;5034157;28;20054;-65
2021/08/01 01:49:42;;;;;;;14.63;12.30;;;;;;;16.92;75.51;99609.94;5034006;28;20061;-65
2021/08/01 01:52:11;;;;;;;;;;;;;;;16.81;75.65;99601.34;5034801;28;20049;-65
2021/08/01 01:54:41;;;;;;;14.88;12.43;;;;;;;16.83;75.75;99600.97;5033681;28;19928;-65
2021/08/01 01:57:09;;;;;;;14.00;11.52;;;;;;;16.84;76.02;99597.00;5033789;28;20042;-65
2021/08/01 01:59:38;;;;;;;14.57;12.00;;;;;;;16.89;75.93;99596.66;5033969;28;20482;-65
2021/08/01 02:02:06;;;;;;;16.30;13.05;;;;;;;16.87;76.18;99590.59;5033810;28;20058;-65
2021/08/01 02:04:34;;;;;;;13.80;12.13;;;;;;;16.93;76.09;99589.06;5033352;28;20057;-64
2021/08/01 02:07:02;;;;;;;14.10;11.85;;;;;;;16.97;76.25;99598.38;5033554;28;20056;-64
2021/08/01 02:09:47;;;;;;;14.55;11.77;;;;;;;17.02;75.85;99592.41;5033679;28;20501;-64
2021/08/01 02:12:19;;;;;;;15.23;12.68;;;;;;;17.05;75.75;99593.69;5033802;28;20053;-64
2021/08/01 02:15:03;;;;;;;15.77;12.23;;;;;;;17.07;75.47;99593.28;5033276;28;20065;-64
2021/08/01 02:17:34;;;;;;;14.13;11.25;;;;;;;17.09;75.76;99586.06;5034264;28;20058;-65
2021/08/01 02:20:05;;;;;;;12.48;11.07;;;;;;;17.16;75.47;99596.66;5033187;28;20049;-64
2021/08/01 02:22:33;;;;;;;12.80;10.75;;;;;;;17.15;75.46;99597.81;5033789;28;20064;-64
2021/08/01 02:25:03;;;;;;;13.25;11.65;;;;;;;17.18;75.31;99589.44;5033114;28;20049;-64
2021/08/01 02:27:34;;;;;;;12.77;11.38;;;;;;;17.24;75.22;99595.56;5033125;28;20053;-64
2021/08/01 02:30:04;;;;;;;14.20;12.13;;;;;;;17.27;74.90;99591.16;5033125;28;20053;-64
2021/08/01 02:32:32;;;;;;;14.75;12.55;;;;;;;17.28;74.77;99590.75;5033483;28;20060;-64
2021/08/01 02:35:00;;;;;;;13.13;11.17;;;;;;;17.25;75.07;99586.72;5033456;28;20064;-64
2021/08/01 02:37:29;;;;;;;14.77;11.98;;;;;;;17.24;74.74;99584.28;5032826;28;20486;-64
2021/08/01 02:39:58;;;;;;;14.27;12.60;;;;;;;17.23;74.94;99589.09;5032771;28;20490;-64
2021/08/01 02:42:27;;;;;;;13.32;11.77;;;;;;;17.23;75.37;99589.09;5033067;28;20049;-64
2021/08/01 02:44:58;;;;;;;13.07;11.65;;;;;;;17.26;75.34;99587.53;5032904;28;20053;-65
2021/08/01 02:47:27;;;;;;;13.88;11.52;;;;;;;17.26;75.38;99584.72;5033884;28;20049;-64
2021/08/01 02:49:56;;;;;;;13.02;10.90;;;;;;;17.29;75.21;99586.75;5032665;28;20053;-64
2021/08/01 02:52:33;;;;;;;13.15;11.25;;;;;;;17.30;75.02;99593.19;5033207;28;20057;-64
2021/08/01 02:55:04;;;;;;;15.02;13.05;;;;;;;17.33;75.09;99584.81;5032812;28;20056;-64
2021/08/01 02:57:35;;;;;;;14.30;11.63;;;;;;;17.35;74.78;99587.25;5033113;28;20479;-64
2021/08/01 03:00:04;;;;;;;13.20;10.93;;;;;;;17.37;74.99;99587.69;5032508;28;20053;-64
2021/08/01 03:02:33;;;;;;;12.38;11.07;;;;;;;17.39;75.11;99590.94;5032678;28;20054;-64
2021/08/01 03:05:03;;;;;;;13.48;11.70;;;;;;;17.42;74.52;99595.78;5032645;28;20046;-64
2021/08/01 03:07:31;;;;;;;13.30;11.60;;;;;;;17.42;74.61;99582.50;5032147;28;20394;-64
2021/08/01 03:09:58;;;;;;;14.75;10.90;;;;;;;17.49;74.40;99595.06;5032615;28;20430;-64
2021/08/01 03:12:26;;;;;;;11.32;10.13;;;;;;;17.51;74.05;99590.66;5032852;28;20065;-64
2021/08/01 03:14:55;;;;;;;14.60;11.38;;;;;;;17.50;74.02;99591.06;5032640;28;20053;-64
2021/08/01 03:17:22;;;;;;;13.00;11.07;;;;;;;17.50;73.76;99586.22;5032408;28;20407;-64
2021/08/01 03:19:49;;;;;;;15.02;11.00;;;;;;;17.47;73.91;99598.28;5033229;28;20053;-64
2021/08/01 03:22:17;;;;;;;13.55;11.00;;;;;;;17.48;74.01;99602.69;5041047;28;20399;-64
2021/08/01 03:24:44;;;;;;;13.23;10.73;;;;;;;17.38;74.43;99609.78;5051975;28;20053;-64
2021/08/01 03:27:11;;;;;;;12.18;10.95;;;;;;;17.36;74.56;99600.13;5051699;28;20076;-64
2021/08/01 03:29:38;;;;;;;14.15;11.45;;;;;;;17.12;75.39;99605.03;5052472;28;20079;-64
2021/08/01 03:32:08;;;;;;;15.05;12.18;;;;;;;17.22;75.34;99604.38;5052241;28;20053;-64
2021/08/01 03:34:35;;;;;;;13.85;11.48;;;;;;;17.25;75.18;99599.97;5052363;28;20060;-64
2021/08/01 03:37:02;;;;;;;15.55;11.85;;;;;;;17.27;74.92;99602.41;5052349;28;20486;-64
2021/08/01 03:39:33;;;;;;;13.13;11.27;;;;;;;17.28;75.27;99604.84;5052054;28;20486;-64
2021/08/01 03:42:00;;;;;;;14.82;11.55;;;;;;;17.29;74.97;99598.03;5052215;28;20408;-64
2021/08/01 03:44:28;;;;;;;14.02;10.63;;;;;;;17.39;74.64;99608.63;5052529;28;20057;-64
2021/08/01 03:46:55;;;;;;;15.77;10.85;;;;;;;17.42;74.62;99604.22;5052423;28;20103;-64
2021/08/01 03:49:24;;;;;;;13.65;11.98;;;;;;;17.44;74.32;99605.44;5052416;28;20049;-64
2021/08/01 03:51:51;;;;;;;15.25;12.10;;;;;;;17.42;74.60;99607.84;5052151;28;20057;-64
2021/08/01 03:54:19;;;;;;;15.18;12.68;;;;;;;17.49;74.31;99606.31;5052145;28;20064;-64
2021/08/01 03:56:46;;;;;;;14.98;12.32;;;;;;;17.47;74.04;99605.88;5052079;28;20059;-64
2021/08/01 03:59:14;;;;;;;15.85;12.35;;;;;;;17.36;74.94;99598.09;5052289;28;20049;-64
2021/08/01 04:01:42;;;;;;;15.23;12.32;;;;;;;17.44;74.07;99599.81;5052197;28;20049;-64
2021/08/01 04:04:09;;;;;;;16.08;12.52;;;;;;;17.27;75.09;99591.97;5051300;28;20053;-64
2021/08/01 04:06:38;;;;;;;15.88;13.55;;;;;;;17.25;75.00;99602.78;5044858;28;20052;-64
2021/08/01 04:09:05;;;;;;;17.77;13.20;;;;;;;17.38;74.46;99606.97;5032221;28;20474;-64
2021/08/01 04:11:33;;;;;;;17.38;12.65;;;;;;;17.44;74.61;99605.44;5032186;28;20422;-64
2021/08/01 04:14:01;;;;;;;17.45;13.90;;;;;;;17.33;74.75;99593.25;5031777;28;20053;-64
2021/08/01 04:16:28;;;;;;;16.95;13.27;;;;;;;17.40;74.75;99604.59;5032330;28;20497;-64
2021/08/01 04:18:55;;;;;;;16.35;13.63;;;;;;;17.33;75.15;99610.16;5032778;28;20053;-64
2021/08/01 04:21:23;;;;;;;15.65;13.27;;;;;;;17.43;74.76;99609.47;5035620;28;20065;-64
2021/08/01 04:23:51;;;;;;;20.05;14.00;;;;;;;17.54;74.40;99612.44;5035612;28;20060;-64
2021/08/01 04:26:19;;;;;;;16.00;12.82;;;;;;;17.57;74.58;99611.66;5035668;28;20061;-64
2021/08/01 04:28:46;;;;;;;17.10;13.38;;;;;;;17.65;74.56;99610.53;5035461;28;20056;-64
2021/08/01 04:31:15;;;;;;;15.52;12.30;;;;;;;17.73;74.52;99605.81;5035349;28;20064;-64
2021/08/01 04:33:42;;;;;;;16.17;13.40;;;;;;;17.80;74.25;99608.72;5035153;28;20053;-64
2021/08/01 04:36:10;;;;;;;16.85;13.05;;;;;;;17.93;73.91;99597.22;5034930;28;20049;-65
2021/08/01 04:38:37;;;;;;;17.05;14.10;;;;;;;17.96;73.84;99602.88;5035349;28;20467;-64
2021/08/01 04:41:06;;;;;;;18.35;14.32;;;;;;;17.97;73.76;99612.16;5034945;28;20049;-64
2021/08/01 04:43:33;;;;;;;15.70;13.37;;;;;;;18.07;73.63;99607.84;5035292;28;20064;-64
2021/08/01 04:46:01;;;;;;;18.10;14.02;;;;;;;18.02;73.66;99606.19;5035045;28;20045;-64
2021/08/01 04:48:28;;;;;;;18.70;14.85;;;;;;;18.11;73.16;99609.50;5034882;28;20057;-64
2021/08/01 04:50:55;;;;;;;16.33;13.45;;;;;;;18.12;72.89;99613.09;5034997;28;20049;-64
2021/08/01 04:53:23;;;;;;;16.77;14.52;;;;;;;18.17;72.82;99622.03;5034965;28;20053;-64
2021/08/01 04:55:50;;;;;;;17.05;14.65;;;;;;;17.99;73.29;99612.56;5034927;28;20061;-64
2021/08/01 04:58:19;;;;;;;18.65;14.82;;;;;;;18.23;72.59;99617.66;5034653;28;20060;-64
2021/08/01 05:00:46;;;;;;;16.20;14.30;;;;;;;18.22;72.35;99613.22;5035041;28;20403;-64
2021/08/01 05:03:13;;;;;;;16.33;14.50;;;;;;;18.29;72.48;99614.47;5034436;28;20064;-64
2021/08/01 05:05:41;;;;;;;17.80;14.63;;;;;;;18.28;72.20;99610.06;5034332;28;20049;-63
2021/08/01 05:08:08;;;;;;;21.23;14.88;;;;;;;18.45;71.89;99615.03;5054402;28;20413;-64
2021/08/01 05:10:35;;;;;;;17.52;15.02;;;;;;;18.34;72.16;99614.94;5054699;28;20061;-64
2021/08/01 05:13:06;;;;;;;18.13;15.73;;;;;;;18.49;71.56;99606.63;5053841;28;20489;-64
2021/08/01 05:15:35;;;;;;;17.88;15.23;;;;;;;18.54;71.47;99594.97;5054381;28;20486;-64
2021/08/01 05:18:03;;;;;;;18.00;14.75;;;;;;;18.53;71.67;99599.81;5054034;28;20060;-64
2021/08/01 05:20:31;;;;;;;17.73;15.50;;;;;;;18.56;71.59;99604.69;5054031;28;20053;-63
2021/08/01 05:22:58;;;;;;;16.45;14.52;;;;;;;18.60;71.43;99610.34;5053795;28;20064;-63
2021/08/01 05:25:26;;;;;;;19.90;15.95;;;;;;;18.53;71.52;99607.47;5054317;28;20060;-64
2021/08/01 05:27:53;;;;;;;20.02;14.70;;;;;;;18.56;71.36;99595.41;5054394;28;20489;-63
2021/08/01 05:30:20;;;;;;;18.92;15.95;;;;;;;18.52;71.56;99615.13;5053242;28;20063;-63
2021/08/01 05:32:49;;;;;;;17.95;15.15;;;;;;;18.72;71.15;99609.25;5053757;28;20071;-63
2021/08/01 05:35:17;;;;;;;21.65;16.48;;;;;;;18.77;71.07;99606.03;5053484;28;20421;-64
2021/08/01 05:37:44;;;;;;;21.73;16.85;;;;;;;18.94;70.38;99605.41;5054417;28;20478;-64
2021/08/01 05:40:12;;;;;;;17.75;15.63;;;;;;;18.81;70.32;99604.88;5053496;28;20367;-64
2021/08/01 05:42:41;;;;;;;21.38;17.08;;;;;;;19.02;69.23;99604.25;5054149;28;20110;-64
2021/08/01 05:45:09;;;;;;;21.17;16.08;;;;;;;18.93;69.79;99594.50;5053862;28;20049;-64
2021/08/01 05:47:38;;;;;;;21.38;16.85;;;;;;;19.05;69.43;99600.63;5053700;28;20049;-64
2021/08/01 05:50:09;;;;;;;20.85;17.30;;;;;;;18.88;69.94;99601.34;5053798;28;20413;-64
2021/08/01 05:52:36;;;;;;;21.23;17.40;;;;;;;18.95;69.54;99595.72;5053551;28;20053;-64
2021/08/01 05:55:04;;;;;;;21.55;17.05;;;;;;;19.15;69.51;99595.44;5053510;28;20049;-64
2021/08/01 05:57:31;;;;;;;20.25;16.52;;;;;;;19.22;69.17;99593.47;5054115;28;20053;-64
2021/08/01 05:59:58;;;;;;;17.83;15.90;;;;;;;19.36;67.84;99598.41;5053365;28;20053;-63
2021/08/01 06:02:26;;;;;;;21.45;17.02;;;;;;;19.31;67.92;99603.59;5053948;28;20055;-63
2021/08/01 06:04:53;;;;;;;20.92;17.00;;;;;;;19.41;68.21;99602.84;5053510;28;20045;-64
2021/08/01 06:07:22;;;;;;;18.85;14.90;;;;;;;19.48;68.01;99598.03;5040160;28;20080;-64
2021/08/01 06:09:49;;;;;;;19.73;15.27;;;;;;;19.41;67.90;99594.38;5033335;28;20049;-64
2021/08/01 06:12:16;;;;;;;21.45;16.13;;;;;;;19.47;68.45;99599.25;5033145;28;20064;-64
2021/08/01 06:14:47;;;;;;;19.27;15.00;;;;;;;19.52;68.21;99594.44;5033628;28;20394;-64
2021/08/01 06:17:15;;;;;;;21.67;15.95;;;;;;;19.66;67.17;99591.66;5033254;28;20056;-64
2021/08/01 06:19:42;;;;;;;17.88;15.30;;;;;;;19.71;66.92;99599.78;5032763;28;20061;-63
2021/08/01 06:22:10;;;;;;;18.17;14.98;;;;;;;19.68;67.09;99589.25;5033213;28;20058;-64
2021/08/01 06:24:38;;;;;;;17.40;15.05;;;;;;;19.56;67.54;99590.41;5032989;28;20053;-63
2021/08/01 06:27:06;;;;;;;16.60;14.75;;;;;;;19.82;66.79;99597.81;5033252;28;20049;-63
2021/08/01 06:29:33;;;;;;;16.50;14.05;;;;;;;19.77;65.48;99592.53;5033179;28;20049;-63
2021/08/01 06:32:01;;;;;;;16.80;14.60;;;;;;;19.66;66.52;99597.31;5033192;28;20053;-63
2021/08/01 06:34:28;;;;;;;18.42;14.43;;;;;;;19.65;66.25;99593.69;5033101;28;20057;-63
2021/08/01 06:36:55;;;;;;;15.85;14.02;;;;;;;19.42;67.36;99605.28;5033211;28;20380;-63
2021/08/01 06:39:23;;;;;;;17.85;15.43;;;;;;;19.60;67.26;99598.91;5032779;28;20064;-63
2021/08/01 06:41:52;;;;;;;18.88;15.07;;;;;;;19.36;67.19;99594.75;5032606;28;20053;-63
2021/08/01 06:44:19;;;;;;;18.58;16.15;;;;;;;19.38;67.90;99597.97;5032839;28;20414;-63
2021/08/01 06:46:47;;;;;;;17.92;15.30;;;;;;;19.52;67.38;99603.72;5032971;28;20053;-64
2021/08/01 06:49:14;;;;;;;17.60;15.55;;;;;;;19.60;66.87;99598.91;5032695;28;20060;-64
2021/08/01 06:51:42;;;;;;;16.80;14.75;;;;;;;19.63;67.23;99592.44;5033225;28;20065;-63
2021/08/01 06:54:10;;;;;;;18.08;14.93;;;;;;;19.90;66.39;99595.81;5032493;28;20060;-63
2021/08/01 06:56:37;;;;;;;17.63;14.05;;;;;;;20.08;64.98;99593.03;5032974;28;20053;-63
2021/08/01 06:59:05;;;;;;;13.18;11.57;;;;;;;19.97;64.29;99589.34;5032591;28;20064;-64
2021/08/01 07:01:33;;;;;;;11.80;10.70;;;;;;;20.14;62.78;99594.25;5032572;28;20391;-63
2021/08/01 07:04:02;;;;;;;10.85;9.73;;;;;;;20.24;62.53;99596.31;5032710;28;20463;-63
2021/08/01 07:06:30;;;;;;;10.20;9.20;;;;;;;19.82;63.87;99591.34;5032407;28;20045;-63
2021/08/01 07:08:57;;;;;;;12.10;9.68;;;;;;;19.93;63.51;99589.38;5033102;28;20471;-63
2021/08/01 07:11:25;;;;;;;11.45;10.25;;;;;;;20.09;62.80;99597.47;5032449;28;20080;-64
2021/08/01 07:13:52;;;;;;;10.43;9.50;;;;;;;20.20;62.36;99601.13;5032366;28;20084;-63
2021/08/01 07:16:21;;;;;;;9.93;8.88;;;;;;;20.83;60.47;99593.09;5032244;28;20050;-63
2021/08/01 07:18:48;;;;;;;9.07;8.05;;;;;;;21.13;59.54;99599.53;5032732;28;20049;-63
2021/08/01 07:21:15;;;;;;;8.95;8.05;;;;;;;21.21;59.20;99601.13;5032024;28;20053;-63
2021/08/01 07:23:43;;;;;;;10.43;8.98;;;;;;;21.15;58.57;99603.56;5031846;28;20045;-63
2021/08/01 07:26:10;;;;;;;10.80;9.02;;;;;;;21.15;58.45;99600.72;5032048;28;20407;-63
2021/08/01 07:28:38;;;;;;;8.98;8.10;;;;;;;20.94;59.13;99604.41;5032565;28;20065;-63
2021/08/01 07:31:05;;;;;;;9.65;8.75;;;;;;;21.20;58.45;99602.34;5032468;28;20057;-63
2021/08/01 07:33:34;;;;;;;9.73;8.43;;;;;;;21.29;58.29;99599.88;5032332;28;20375;-63
2021/08/01 07:36:03;;;;;;;9.45;8.48;;;;;;;21.25;58.14;99604.75;5031603;28;20073;-63
2021/08/01 07:38:30;;;;;;;8.75;7.68;;;;;;;21.65;57.73;99599.81;5032166;28;20050;-63
2021/08/01 07:40:57;;;;;;;11.73;9.23;;;;;;;21.51;56.32;99602.69;5032063;28;20053;-63
2021/08/01 07:43:25;;;;;;;10.85;9.57;;;;;;;21.25;57.33;99613.22;5031604;28;20487;-63
2021/08/01 07:45:52;;;;;;;10.82;9.70;;;;;;;20.94;58.27;99606.44;5032202;28;20057;-63
2021/08/01 07:48:20;;;;;;;9.70;8.80;;;;;;;21.70;56.60;99596.53;5031835;28;20057;-63
2021/08/01 07:50:48;;;;;;;36.67;16.52;;;;;;;22.83;53.71;99607.56;5032352;28;20064;-63
2021/08/01 07:53:16;;;;;;;9.85;8.40;;;;;;;23.96;50.42;99597.41;5031914;28;20053;-63
2021/08/01 07:55:43;;;;;;;8.75;7.90;;;;;;;24.96;47.71;99599.91;5036033;28;20053;-63
2021/08/01 07:58:10;;;;;;;8.10;7.30;;;;;;;25.99;45.83;99597.09;5035770;28;20045;-63
2021/08/01 08:00:38;;;;;;;9.88;7.53;;;;;;;25.90;45.46;99588.34;5035805;28;20053;-63
2021/08/01 08:03:05;;;;;;;9.93;8.40;;;;;;;25.44;45.79;99602.28;5035582;28;20501;-64
2021/08/01 08:05:32;;;;;;;9.73;7.65;;;;;;;24.96;46.01;99602.78;5035605;28;20057;-63
2021/08/01 08:08:01;;;;;;;10.52;8.38;;;;;;;25.42;45.03;99604.78;5035485;28;20056;-63
2021/08/01 08:10:28;;;;;;;8.88;7.63;;;;;;;26.58;42.77;99603.91;5035542;28;20057;-63
2021/08/01 08:12:56;;;;;;;9.38;7.53;;;;;;;27.84;40.27;99606.25;5035475;28;20046;-63
2021/08/01 08:15:23;;;;;;;8.27;7.13;;;;;;;27.92;39.28;99597.03;5034706;28;20073;-63
2021/08/01 08:17:51;;;;;;;9.80;8.30;;;;;;;27.16;40.18;99599.59;5035404;28;20060;-63
2021/08/01 08:20:18;;;;;;;10.45;8.85;;;;;;;26.49;41.11;99603.69;5034937;28;20054;-63
2021/08/01 08:22:45;;;;;;;8.50;7.65;;;;;;;26.42;41.66;99596.13;5035476;28;20068;-63
2021/08/01 08:25:14;;;;;;;9.52;8.63;;;;;;;26.05;42.03;99606.75;5034618;28;20479;-63
2021/08/01 08:27:42;;;;;;;9.00;7.80;;;;;;;25.69;43.45;99600.97;5035360;28;20053;-63
2021/08/01 08:30:11;;;;;;;9.77;8.60;;;;;;;25.60;43.46;99606.44;5034930;28;20502;-63
2021/08/01 08:32:38;;;;;;;10.68;8.15;;;;;;;26.40;42.31;99598.59;5035210;28;20053;-63
2021/08/01 08:35:07;;;;;;;7.78;6.82;;;;;;;26.36;40.79;99591.38;5035174;28;20053;-63
2021/08/01 08:37:43;;;;;;;7.07;6.40;;;;;;;27.36;39.56;99594.53;5035107;28;20056;-63
2021/08/01 08:40:12;;;;;;;9.20;7.43;;;;;;;28.98;36.98;99587.50;5034443;28;20053;-63
2021/08/01 08:42:42;;;;;;;9.55;7.68;;;;;;;28.86;36.91;99594.84;5034962;28;20483;-64
2021/08/01 08:45:15;;;;;;;7.13;5.72;;;;;;;29.10;35.80;99586.66;5034257;28;20049;-64
2021/08/01 08:47:44;;;;;;;6.18;5.57;;;;;;;28.98;35.29;99590.38;5034476;28;20045;-64
2021/08/01 08:50:14;;;;;;;8.90;5.75;;;;;;;28.22;36.36;99594.88;5034650;28;20072;-65
2021/08/01 08:52:44;;;;;;;8.02;5.38;;;;;;;27.57;37.14;99592.31;5034489;28;20054;-63
2021/08/01 08:55:14;;;;;;;6.90;5.18;;;;;;;27.57;36.67;99592.31;5034506;28;20125;-64
2021/08/01 08:57:47;;;;;;;6.43;5.10;;;;;;;28.32;36.06;99590.88;5034756;28;20065;-64
2021/08/01 09:00:15;;;;;;;6.88;4.80;;;;;;;28.79;34.78;99589.38;5034190;28;20407;-64
2021/08/01 09:02:43;;;;;;;5.38;4.65;;;;;;;30.40;31.92;99594.13;5034152;28;20053;-64
2021/08/01 09:05:11;;;;;;;4.95;4.28;;;;;;;32.42;29.39;99591.75;5033429;28;20049;-64
2021/08/01 09:07:40;;;;;;;5.07;3.53;;;;;;;33.08;27.11;99596.72;5033868;28;20045;-64
2021/08/01 09:10:09;;;;;;;5.95;3.95;;;;;;;33.90;25.95;99591.53;5034509;28;20478;-64
2021/08/01 09:12:45;;;;;;;4.47;3.33;;;;;;;34.21;25.30;99591.03;5034235;28;20049;-64
2021/08/01 09:15:15;;;;;;;3.97;3.30;;;;;;;34.24;25.91;99592.91;5033986;28;20049;-64
2021/08/01 09:17:44;;;;;;;4.10;2.70;;;;;;;33.19;26.68;99593.25;5034343;28;20057;-64
2021/08/01 09:20:15;;;;;;;4.43;2.75;;;;;;;32.42;27.29;99598.31;5033979;28;20513;-64
2021/08/01 09:22:43;;;;;;;3.63;2.50;;;;;;;31.16;29.51;99597.50;5034317;28;20057;-64
2021/08/01 09:25:20;;;;;;;3.72;2.70;;;;;;;29.43;32.00;99602.75;5033990;28;20050;-64
2021/08/01 09:27:48;;;;;;;4.07;2.38;;;;;;;30.76;30.41;99595.50;5034093;28;20481;-64
2021/08/01 09:30:16;;;;;;;4.72;2.35;;;;;;;31.52;30.00;99608.28;5033848;28;20053;-64
2021/08/01 09:32:48;;;;;;;4.50;2.60;;;;;;;31.40;29.35;99599.78;5034130;28;20061;-64
2021/08/01 09:35:19;;;;;;;4.95;2.67;;;;;;;30.89;30.53;99606.91;5033662;28;20057;-64
2021/08/01 09:37:56;;;;;;;3.95;2.40;;;;;;;30.10;31.01;99607.19;5034185;28;20057;-64
2021/08/01 09:40:28;;;;;;;4.28;2.42;;;;;;;29.05;32.44;99606.53;5033549;28;20049;-64
2021/08/01 09:43:06;;;;;;;4.18;2.65;;;;;;;29.26;32.67;99610.72;5033908;28;20049;-65
2021/08/01 09:45:34;;;;;;;3.53;2.50;;;;;;;31.97;28.80;99617.31;5033519;28;20053;-64
2021/08/01 09:48:15;;;;;;;3.65;2.38;;;;;;;34.52;24.66;99609.91;5033871;28;20049;-64
2021/08/01 09:51:00;;;;;;;3.08;2.25;;;;;;;36.51;22.20;99609.66;5033921;28;20058;-65
2021/08/01 09:53:28;;;;;;;4.32;2.70;;;;;;;36.48;22.13;99604.13;5033232;28;20060;-65
2021/08/01 09:56:19;;;;;;;2.45;1.73;;;;;;;35.72;23.46;99602.34;5033560;28;20080;-65
2021/08/01 09:58:49;;;;;;;4.78;2.10;;;;;;;34.00;25.17;99603.75;5033580;28;20474;-65
2021/08/01 10:01:17;;;;;;;4.03;2.20;;;;;;;32.90;26.83;99612.81;5033900;28;20479;-65
2021/08/01 10:03:46;;;;;;;4.18;2.63;;;;;;;32.06;28.00;99610.78;5033665;28;20053;-65
2021/08/01 10:06:13;;;;;;;;;;;;;;;31.21;29.41;99613.38;5033567;28;20045;-65
2021/08/01 10:08:45;;;;;;;3.87;2.20;;;;;;;30.42;31.68;99616.63;5032949;28;20409;-64
2021/08/01 10:11:17;;;;;;;3.30;2.40;;;;;;;29.85;32.63;99619.66;5033393;28;20057;-64
2021/08/01 10:13:46;;;;;;;3.78;2.20;;;;;;;28.90;33.00;99617.69;5033197;28;20053;-64
2021/08/01 10:16:15;;;;;;;3.35;2.10;;;;;;;28.79;33.29;99615.19;5033143;28;20049;-64
2021/08/01 10:18:44;;;;;;;5.22;2.40;;;;;;;28.25;33.89;99621.81;5033216;28;20049;-64
2021/08/01 10:21:14;;;;;;;4.38;2.50;;;;;;;27.78;35.12;99620.31;5033219;28;20065;-65
2021/08/01 10:23:44;;;;;;;4.72;2.30;;;;;;;28.74;33.66;99605.06;5033234;28;20379;-64
2021/08/01 10:26:13;;;;;;;5.60;2.90;;;;;;;30.34;32.59;99605.44;5033372;28;20120;-64
2021/08/01 10:28:43;;;;;;;3.13;2.42;;;;;;;30.39;31.86;99606.91;5033110;28;20053;-64
2021/08/01 10:31:13;;;;;;;3.33;2.20;;;;;;;30.70;30.08;99601.09;5032874;28;20057;-64
2021/08/01 10:33:53;;;;;;;2.90;2.10;;;;;;;30.30;30.68;99607.66;5033029;28;20057;-64
2021/08/01 10:36:26;;;;;;;6.55;3.03;;;;;;;30.46;29.71;99605.81;5031492;28;20057;-64
2021/08/01 10:38:59;;;;;;;3.47;1.98;;;;;;;30.10;30.05;99592.84;5032862;28;20475;-64
2021/08/01 10:41:30;;;;;;;4.05;2.35;;;;;;;29.17;31.90;99602.03;5032366;28;20061;-64
2021/08/01 10:44:03;;;;;;;4.20;2.22;;;;;;;29.31;32.43;99598.66;5032869;28;20080;-64
2021/08/01 10:46:31;;;;;;;4.72;2.70;;;;;;;28.79;32.94;99606.59;5032834;28;20056;-64
2021/08/01 10:49:01;;;;;;;4.88;2.80;;;;;;;31.32;29.54;99599.28;5032412;28;20056;-64
2021/08/01 10:51:30;;;;;;;4.20;2.80;;;;;;;33.16;26.03;99595.06;5032639;28;20086;-64
2021/08/01 10:54:34;;;;;;;5.13;2.72;;;;;;;35.64;23.67;99595.41;5032462;28;20061;-64
2021/08/01 10:57:18;;;;;;;3.78;2.60;;;;;;;34.89;23.04;99597.88;5032760;28;20049;-64
2021/08/01 10:59:58;;;;;;;4.82;2.95;;;;;;;36.86;21.27;99596.22;5032611;28;20049;-64
2021/08/01 11:02:26;;;;;;;4.35;2.28;;;;;;;37.32;21.90;99598.03;5032468;28;20141;-64
2021/08/01 11:04:56;;;;;;;4.75;2.42;;;;;;;34.60;23.79;99587.94;5032469;28;20056;-65
2021/08/01 11:08:00;;;;;;;2.65;2.22;;;;;;;36.35;22.06;99590.03;5032408;28;20049;-65
2021/08/01 11:10:32;;;;;;;4.65;2.78;;;;;;;37.07;20.61;99591.81;5032578;28;20496;-64
2021/08/01 11:12:59;;;;;;;3.65;2.28;;;;;;;35.50;22.09;99592.06;5032103;28;20057;-64
2021/08/01 11:15:47;;;;;;;4.22;2.90;;;;;;;35.37;22.72;99583.78;5031884;28;20053;-64
2021/08/01 11:18:15;;;;;;;4.82;2.80;;;;;;;35.83;22.10;99590.88;5032158;28;20054;-64
2021/08/01 11:20:51;;;;;;;3.40;2.28;;;;;;;34.45;23.30;99595.88;5032446;28;20060;-64
2021/08/01 11:23:19;;;;;;;4.85;2.70;;;;;;;34.68;22.85;99592.03;5032144;28;20057;-64
2021/08/01 11:26:07;;;;;;;4.27;2.80;;;;;;;35.35;22.96;99594.28;5032418;28;20503;-64
2021/08/01 11:28:36;;;;;;;4.38;2.40;;;;;;;34.63;22.92;99600.59;5032605;28;20049;-64
2021/08/01 11:31:21;;;;;;;4.05;2.35;;;;;;;33.25;24.48;99591.28;5036523;28;20053;-64
2021/08/01 11:33:50;;;;;;;4.10;2.95;;;;;;;33.77;23.99;99597.59;5035966;28;20053;-64
2021/08/01 11:36:27;;;;;;;3.67;2.50;;;;;;;36.05;21.86;99590.28;5036372;28;20495;-64